sensor_id;sensor_type;location;lat;lon;timestamp;pressure;altitude;pressure_sealevel;temperature;humidity
76611;BME280;65503;48.534;9.062;2023-08-21T00:00:46;97495.59;;;25.45;65.53
76611;BME280;65503;48.534;9.062;2023-08-21T00:03:12;97504.94;;;25.47;65.67
76611;BME280;65503;48.534;9.062;2023-08-21T00:05:39;97502.75;;;25.49;65.30
76611;BME280;65503;48.534;9.062;2023-08-21T00:08:06;97505.59;;;25.44;65.63
76611;BME280;65503;48.534;9.062;2023-08-21T00:10:37;97497.00;;;25.42;65.99
76611;BME280;65503;48.534;9.062;2023-08-21T00:13:04;97498.44;;;25.40;65.88
76611;BME280;65503;48.534;9.062;2023-08-21T00:15:31;97497.00;;;25.42;65.82
76611;BME280;65503;48.534;9.062;2023-08-21T00:17:58;97492.72;;;25.41;65.64
76611;BME280;65503;48.534;9.062;2023-08-21T00:20:24;97490.97;;;25.37;66.23
76611;BME280;65503;48.534;9.062;2023-08-21T00:22:51;97493.03;;;25.40;65.68
76611;BME280;65503;48.534;9.062;2023-08-21T00:25:17;97499.09;;;25.45;65.47
76611;BME280;65503;48.534;9.062;2023-08-21T00:27:44;97494.78;;;25.44;65.62
76611;BME280;65503;48.534;9.062;2023-08-21T00:30:11;97489.41;;;25.44;65.65
76611;BME280;65503;48.534;9.062;2023-08-21T00:32:37;97486.06;;;25.39;66.35
76611;BME280;65503;48.534;9.062;2023-08-21T00:35:04;97489.22;;;25.41;65.85
76611;BME280;65503;48.534;9.062;2023-08-21T00:37:31;97484.16;;;25.39;65.78
76611;BME280;65503;48.534;9.062;2023-08-21T00:39:57;97483.03;;;25.40;65.77
76611;BME280;65503;48.534;9.062;2023-08-21T00:42:24;97485.88;;;25.35;65.92
76611;BME280;65503;48.534;9.062;2023-08-21T00:44:51;97470.94;;;25.29;66.23
76611;BME280;65503;48.534;9.062;2023-08-21T00:47:18;97483.94;;;25.27;66.07
76611;BME280;65503;48.534;9.062;2023-08-21T00:49:45;97482.38;;;25.26;65.88
76611;BME280;65503;48.534;9.062;2023-08-21T00:52:14;97470.00;;;25.25;66.42
76611;BME280;65503;48.534;9.062;2023-08-21T00:54:41;97479.81;;;25.21;65.90
76611;BME280;65503;48.534;9.062;2023-08-21T00:57:08;97475.03;;;25.18;66.09
76611;BME280;65503;48.534;9.062;2023-08-21T00:59:35;97476.09;;;25.08;66.81
76611;BME280;65503;48.534;9.062;2023-08-21T01:02:01;97479.91;;;25.07;67.28
76611;BME280;65503;48.534;9.062;2023-08-21T01:04:28;97481.34;;;25.05;66.85
76611;BME280;65503;48.534;9.062;2023-08-21T01:06:56;97479.25;;;25.02;67.27
76611;BME280;65503;48.534;9.062;2023-08-21T01:09:47;97474.00;;;24.97;67.52
76611;BME280;65503;48.534;9.062;2023-08-21T01:12:29;97480.00;;;24.94;67.30
76611;BME280;65503;48.534;9.062;2023-08-21T01:15:04;97484.09;;;24.91;67.48
76611;BME280;65503;48.534;9.062;2023-08-21T01:17:36;97482.31;;;24.87;67.50
76611;BME280;65503;48.534;9.062;2023-08-21T01:20:07;97484.03;;;24.83;67.71
76611;BME280;65503;48.534;9.062;2023-08-21T01:22:40;97490.81;;;24.80;67.55
76611;BME280;65503;48.534;9.062;2023-08-21T01:25:07;97481.44;;;24.78;67.90
76611;BME280;65503;48.534;9.062;2023-08-21T01:27:35;97490.66;;;24.77;68.07
76611;BME280;65503;48.534;9.062;2023-08-21T01:30:03;97490.47;;;24.73;68.20
76611;BME280;65503;48.534;9.062;2023-08-21T01:35:07;97490.88;;;24.66;68.06
76611;BME280;65503;48.534;9.062;2023-08-21T01:37:35;97487.72;;;24.64;68.18
76611;BME280;65503;48.534;9.062;2023-08-21T01:40:02;97488.31;;;24.61;68.23
76611;BME280;65503;48.534;9.062;2023-08-21T01:42:29;97491.78;;;24.53;68.46
76611;BME280;65503;48.534;9.062;2023-08-21T01:44:56;97484.16;;;24.55;68.14
76611;BME280;65503;48.534;9.062;2023-08-21T01:47:22;97479.91;;;24.54;68.19
76611;BME280;65503;48.534;9.062;2023-08-21T01:49:49;97486.38;;;24.53;68.50
76611;BME280;65503;48.534;9.062;2023-08-21T01:52:18;97490.19;;;24.52;68.42
76611;BME280;65503;48.534;9.062;2023-08-21T01:54:45;97484.28;;;24.50;68.84
76611;BME280;65503;48.534;9.062;2023-08-21T01:57:14;97484.25;;;24.42;68.99
76611;BME280;65503;48.534;9.062;2023-08-21T01:59:41;97479.66;;;24.42;68.61
76611;BME280;65503;48.534;9.062;2023-08-21T02:02:07;97478.56;;;24.43;68.54
76611;BME280;65503;48.534;9.062;2023-08-21T02:04:34;97490.06;;;24.35;68.84
76611;BME280;65503;48.534;9.062;2023-08-21T02:07:01;97478.66;;;24.38;68.82
76611;BME280;65503;48.534;9.062;2023-08-21T02:09:27;97482.91;;;24.31;68.86
76611;BME280;65503;48.534;9.062;2023-08-21T02:11:54;97487.47;;;24.30;68.73
76611;BME280;65503;48.534;9.062;2023-08-21T02:14:21;97484.78;;;24.30;68.78
76611;BME280;65503;48.534;9.062;2023-08-21T02:16:47;97479.72;;;24.28;69.12
76611;BME280;65503;48.534;9.062;2023-08-21T02:19:14;97481.13;;;24.26;69.21
76611;BME280;65503;48.534;9.062;2023-08-21T02:21:41;97474.16;;;24.25;68.78
76611;BME280;65503;48.534;9.062;2023-08-21T02:24:07;97470.97;;;24.23;69.14
76611;BME280;65503;48.534;9.062;2023-08-21T02:26:34;97483.91;;;24.21;69.15
76611;BME280;65503;48.534;9.062;2023-08-21T02:29:00;97476.97;;;24.20;69.80
76611;BME280;65503;48.534;9.062;2023-08-21T02:31:27;97481.53;;;24.19;69.21
76611;BME280;65503;48.534;9.062;2023-08-21T02:33:54;97481.84;;;24.18;69.34
76611;BME280;65503;48.534;9.062;2023-08-21T02:36:20;97482.44;;;24.15;69.39
76611;BME280;65503;48.534;9.062;2023-08-21T02:38:47;97479.25;;;24.13;69.45
76611;BME280;65503;48.534;9.062;2023-08-21T02:41:13;97476.34;;;24.09;69.77
76611;BME280;65503;48.534;9.062;2023-08-21T02:43:43;97489.31;;;24.07;69.58
76611;BME280;65503;48.534;9.062;2023-08-21T02:46:09;97483.16;;;24.07;69.50
76611;BME280;65503;48.534;9.062;2023-08-21T02:48:36;97478.69;;;24.02;69.85
76611;BME280;65503;48.534;9.062;2023-08-21T02:51:02;97481.16;;;23.99;69.62
76611;BME280;65503;48.534;9.062;2023-08-21T02:53:31;97476.41;;;23.96;69.93
76611;BME280;65503;48.534;9.062;2023-08-21T02:55:58;97474.81;;;23.95;69.90
76611;BME280;65503;48.534;9.062;2023-08-21T02:58:24;97477.00;;;23.93;70.00
76611;BME280;65503;48.534;9.062;2023-08-21T03:00:51;97484.75;;;23.94;69.83
76611;BME280;65503;48.534;9.062;2023-08-21T03:03:18;97482.38;;;23.93;69.98
76611;BME280;65503;48.534;9.062;2023-08-21T03:05:44;97479.22;;;23.91;70.07
76611;BME280;65503;48.534;9.062;2023-08-21T03:08:11;97482.19;;;23.89;70.42
76611;BME280;65503;48.534;9.062;2023-08-21T03:10:37;97483.56;;;23.86;70.39
76611;BME280;65503;48.534;9.062;2023-08-21T03:13:04;97483.09;;;23.84;70.23
76611;BME280;65503;48.534;9.062;2023-08-21T03:15:30;97485.16;;;23.87;70.24
76611;BME280;65503;48.534;9.062;2023-08-21T03:17:57;97479.78;;;23.87;70.27
76611;BME280;65503;48.534;9.062;2023-08-21T03:20:24;97485.78;;;23.84;70.19
76611;BME280;65503;48.534;9.062;2023-08-21T03:22:50;97486.59;;;23.85;70.55
76611;BME280;65503;48.534;9.062;2023-08-21T03:25:17;97484.19;;;23.83;70.48
76611;BME280;65503;48.534;9.062;2023-08-21T03:27:43;97485.78;;;23.84;70.42
76611;BME280;65503;48.534;9.062;2023-08-21T03:30:15;97490.19;;;23.80;70.26
76611;BME280;65503;48.534;9.062;2023-08-21T03:32:42;97485.41;;;23.77;70.24
76611;BME280;65503;48.534;9.062;2023-08-21T03:35:09;97494.19;;;23.69;70.48
76611;BME280;65503;48.534;9.062;2023-08-21T03:37:36;97486.59;;;23.71;70.73
76611;BME280;65503;48.534;9.062;2023-08-21T03:40:03;97489.59;;;23.70;70.22
76611;BME280;65503;48.534;9.062;2023-08-21T03:42:30;97488.59;;;23.66;70.38
76611;BME280;65503;48.534;9.062;2023-08-21T03:44:56;97486.81;;;23.61;70.36
76611;BME280;65503;48.534;9.062;2023-08-21T03:47:23;97485.84;;;23.57;70.75
76611;BME280;65503;48.534;9.062;2023-08-21T03:49:49;97486.72;;;23.53;70.40
76611;BME280;65503;48.534;9.062;2023-08-21T03:52:16;97484.63;;;23.50;70.66
76611;BME280;65503;48.534;9.062;2023-08-21T03:54:42;97495.69;;;23.48;70.80
76611;BME280;65503;48.534;9.062;2023-08-21T03:57:09;97494.66;;;23.44;71.14
76611;BME280;65503;48.534;9.062;2023-08-21T03:59:36;97495.56;;;23.39;70.88
76611;BME280;65503;48.534;9.062;2023-08-21T04:02:03;97501.91;;;23.30;70.90
76611;BME280;65503;48.534;9.062;2023-08-21T04:04:29;97502.41;;;23.32;70.84
76611;BME280;65503;48.534;9.062;2023-08-21T04:06:56;97499.72;;;23.32;71.13
76611;BME280;65503;48.534;9.062;2023-08-21T04:09:22;97505.72;;;23.29;71.23
76611;BME280;65503;48.534;9.062;2023-08-21T04:11:49;97500.34;;;23.29;70.99
76611;BME280;65503;48.534;9.062;2023-08-21T04:14:16;97512.66;;;23.30;71.12
76611;BME280;65503;48.534;9.062;2023-08-21T04:16:42;97508.88;;;23.31;71.34
76611;BME280;65503;48.534;9.062;2023-08-21T04:19:09;97512.38;;;23.31;71.32
76611;BME280;65503;48.534;9.062;2023-08-21T04:21:35;97509.91;;;23.35;71.18
76611;BME280;65503;48.534;9.062;2023-08-21T04:24:02;97509.91;;;23.35;71.35
76611;BME280;65503;48.534;9.062;2023-08-21T04:26:29;97522.72;;;23.38;71.08
76611;BME280;65503;48.534;9.062;2023-08-21T04:28:55;97522.22;;;23.36;71.12
76611;BME280;65503;48.534;9.062;2023-08-21T04:31:22;97521.63;;;23.39;71.36
76611;BME280;65503;48.534;9.062;2023-08-21T04:33:48;97531.19;;;23.45;71.33
76611;BME280;65503;48.534;9.062;2023-08-21T04:36:16;97527.44;;;23.46;71.85
76611;BME280;65503;48.534;9.062;2023-08-21T04:38:43;97533.38;;;23.43;71.53
76611;BME280;65503;48.534;9.062;2023-08-21T04:41:10;97528.50;;;23.45;71.51
76611;BME280;65503;48.534;9.062;2023-08-21T04:43:36;97531.91;;;23.51;71.15
76611;BME280;65503;48.534;9.062;2023-08-21T04:46:04;97527.81;;;23.53;71.07
76611;BME280;65503;48.534;9.062;2023-08-21T04:48:30;97534.78;;;23.54;71.12
76611;BME280;65503;48.534;9.062;2023-08-21T04:50:57;97532.63;;;23.56;70.68
76611;BME280;65503;48.534;9.062;2023-08-21T04:53:23;97538.97;;;23.60;70.78
76611;BME280;65503;48.534;9.062;2023-08-21T04:55:50;97534.91;;;23.63;70.38
76611;BME280;65503;48.534;9.062;2023-08-21T04:58:16;97539.66;;;23.66;70.41
76611;BME280;65503;48.534;9.062;2023-08-21T05:00:46;97536.06;;;23.70;70.38
76611;BME280;65503;48.534;9.062;2023-08-21T05:03:13;97536.97;;;23.79;70.22
76611;BME280;65503;48.534;9.062;2023-08-21T05:05:40;97536.25;;;23.87;69.89
76611;BME280;65503;48.534;9.062;2023-08-21T05:08:06;97538.25;;;23.96;69.66
76611;BME280;65503;48.534;9.062;2023-08-21T05:10:33;97542.44;;;24.02;69.35
76611;BME280;65503;48.534;9.062;2023-08-21T05:12:59;97543.91;;;24.08;69.25
76611;BME280;65503;48.534;9.062;2023-08-21T05:15:26;97553.63;;;24.17;68.90
76611;BME280;65503;48.534;9.062;2023-08-21T05:17:52;97543.31;;;24.24;68.83
76611;BME280;65503;48.534;9.062;2023-08-21T05:20:19;97544.97;;;24.34;67.99
76611;BME280;65503;48.534;9.062;2023-08-21T05:22:46;97546.81;;;24.47;67.46
76611;BME280;65503;48.534;9.062;2023-08-21T05:25:12;97549.75;;;24.59;67.11
76611;BME280;65503;48.534;9.062;2023-08-21T05:27:39;97542.53;;;24.68;66.70
76611;BME280;65503;48.534;9.062;2023-08-21T05:30:06;97551.78;;;24.76;66.74
76611;BME280;65503;48.534;9.062;2023-08-21T05:32:32;97553.81;;;24.93;66.25
76611;BME280;65503;48.534;9.062;2023-08-21T05:34:59;97551.22;;;25.10;65.06
76611;BME280;65503;48.534;9.062;2023-08-21T05:37:26;97551.47;;;25.22;65.04
76611;BME280;65503;48.534;9.062;2023-08-21T05:39:53;97562.94;;;25.36;65.10
76611;BME280;65503;48.534;9.062;2023-08-21T05:42:19;97562.53;;;25.51;64.09
76611;BME280;65503;48.534;9.062;2023-08-21T05:44:46;97562.13;;;25.67;64.05
76611;BME280;65503;48.534;9.062;2023-08-21T05:47:13;97559.00;;;25.82;63.47
76611;BME280;65503;48.534;9.062;2023-08-21T05:49:39;97567.13;;;25.90;62.94
76611;BME280;65503;48.534;9.062;2023-08-21T05:52:06;97571.59;;;26.04;62.58
76611;BME280;65503;48.534;9.062;2023-08-21T05:54:32;97567.47;;;26.15;61.98
76611;BME280;65503;48.534;9.062;2023-08-21T05:56:59;97578.81;;;26.25;61.56
76611;BME280;65503;48.534;9.062;2023-08-21T05:59:27;97583.25;;;26.39;61.51
76611;BME280;65503;48.534;9.062;2023-08-21T06:01:57;97577.72;;;26.52;60.91
76611;BME280;65503;48.534;9.062;2023-08-21T06:04:24;97575.00;;;26.78;60.29
76611;BME280;65503;48.534;9.062;2023-08-21T06:06:51;97568.00;;;26.94;59.82
76611;BME280;65503;48.534;9.062;2023-08-21T06:09:17;97571.63;;;27.24;58.52
76611;BME280;65503;48.534;9.062;2023-08-21T06:11:44;97576.94;;;27.59;57.88
76611;BME280;65503;48.534;9.062;2023-08-21T06:14:10;97576.94;;;27.97;56.58
76611;BME280;65503;48.534;9.062;2023-08-21T06:16:37;97576.47;;;28.24;55.73
76611;BME280;65503;48.534;9.062;2023-08-21T06:19:04;97581.66;;;28.00;55.10
76611;BME280;65503;48.534;9.062;2023-08-21T06:21:30;97583.56;;;28.08;55.50
76611;BME280;65503;48.534;9.062;2023-08-21T06:23:57;97576.66;;;28.19;55.50
76611;BME280;65503;48.534;9.062;2023-08-21T06:26:23;97578.25;;;28.41;54.00
76611;BME280;65503;48.534;9.062;2023-08-21T06:28:51;97581.34;;;28.51;53.43
76611;BME280;65503;48.534;9.062;2023-08-21T06:31:17;97583.88;;;28.56;54.00
76611;BME280;65503;48.534;9.062;2023-08-21T06:33:44;97591.78;;;28.61;53.35
76611;BME280;65503;48.534;9.062;2023-08-21T06:36:11;97578.72;;;28.84;53.11
76611;BME280;65503;48.534;9.062;2023-08-21T06:38:37;97583.25;;;29.25;51.33
76611;BME280;65503;48.534;9.062;2023-08-21T06:41:04;97588.97;;;29.56;51.35
76611;BME280;65503;48.534;9.062;2023-08-21T06:43:36;97586.53;;;29.76;50.78
76611;BME280;65503;48.534;9.062;2023-08-21T06:46:03;97587.19;;;30.21;49.38
76611;BME280;65503;48.534;9.062;2023-08-21T06:48:29;97588.69;;;30.71;48.23
76611;BME280;65503;48.534;9.062;2023-08-21T06:50:56;97589.91;;;31.13;47.06
76611;BME280;65503;48.534;9.062;2023-08-21T06:53:22;97590.84;;;31.49;46.14
76611;BME280;65503;48.534;9.062;2023-08-21T06:55:49;97603.25;;;31.78;45.62
76611;BME280;65503;48.534;9.062;2023-08-21T06:58:16;97596.03;;;32.01;45.53
76611;BME280;65503;48.534;9.062;2023-08-21T07:00:42;97602.25;;;32.01;44.53
76611;BME280;65503;48.534;9.062;2023-08-21T07:03:09;97602.78;;;31.91;45.27
76611;BME280;65503;48.534;9.062;2023-08-21T07:05:37;97603.50;;;31.88;44.84
76611;BME280;65503;48.534;9.062;2023-08-21T07:08:04;97604.75;;;31.75;46.04
76611;BME280;65503;48.534;9.062;2023-08-21T07:10:38;97597.34;;;30.89;46.41
76611;BME280;65503;48.534;9.062;2023-08-21T07:13:04;97602.91;;;30.92;47.05
76611;BME280;65503;48.534;9.062;2023-08-21T07:15:31;97604.00;;;31.31;46.67
76611;BME280;65503;48.534;9.062;2023-08-21T07:17:58;97604.59;;;31.40;46.48
76611;BME280;65503;48.534;9.062;2023-08-21T07:20:24;97614.41;;;31.88;45.44
76611;BME280;65503;48.534;9.062;2023-08-21T07:22:51;97607.88;;;32.09;44.42
76611;BME280;65503;48.534;9.062;2023-08-21T07:25:18;97602.34;;;32.21;44.17
76611;BME280;65503;48.534;9.062;2023-08-21T07:27:46;97602.75;;;32.07;44.68
76611;BME280;65503;48.534;9.062;2023-08-21T07:30:12;97605.41;;;32.35;44.45
76611;BME280;65503;48.534;9.062;2023-08-21T07:32:39;97615.53;;;32.69;43.71
76611;BME280;65503;48.534;9.062;2023-08-21T07:35:06;97614.63;;;32.65;43.84
76611;BME280;65503;48.534;9.062;2023-08-21T07:37:33;97615.44;;;33.04;42.37
76611;BME280;65503;48.534;9.062;2023-08-21T07:40:00;97613.94;;;33.07;41.67
76611;BME280;65503;48.534;9.062;2023-08-21T07:42:26;97615.06;;;32.87;42.29
76611;BME280;65503;48.534;9.062;2023-08-21T07:44:53;97618.94;;;32.66;43.67
76611;BME280;65503;48.534;9.062;2023-08-21T07:47:20;97618.47;;;32.80;42.62
76611;BME280;65503;48.534;9.062;2023-08-21T07:49:46;97618.59;;;33.06;42.70
76611;BME280;65503;48.534;9.062;2023-08-21T07:52:13;97622.13;;;33.26;42.01
76611;BME280;65503;48.534;9.062;2023-08-21T07:54:39;97618.78;;;33.17;41.84
76611;BME280;65503;48.534;9.062;2023-08-21T07:57:06;97617.56;;;33.34;41.54
76611;BME280;65503;48.534;9.062;2023-08-21T07:59:33;97618.66;;;33.10;42.25
76611;BME280;65503;48.534;9.062;2023-08-21T08:01:59;97624.44;;;33.24;41.97
76611;BME280;65503;48.534;9.062;2023-08-21T08:04:27;97617.00;;;33.05;42.58
76611;BME280;65503;48.534;9.062;2023-08-21T08:06:53;97615.09;;;33.25;42.58
76611;BME280;65503;48.534;9.062;2023-08-21T08:09:20;97613.22;;;33.29;41.71
76611;BME280;65503;48.534;9.062;2023-08-21T08:11:46;97611.31;;;33.33;41.33
76611;BME280;65503;48.534;9.062;2023-08-21T08:14:13;97612.38;;;33.25;41.30
76611;BME280;65503;48.534;9.062;2023-08-21T08:16:39;97611.47;;;33.40;41.28
76611;BME280;65503;48.534;9.062;2023-08-21T08:19:07;97615.66;;;33.15;41.60
76611;BME280;65503;48.534;9.062;2023-08-21T08:21:34;97612.56;;;32.78;41.86
76611;BME280;65503;48.534;9.062;2023-08-21T08:24:00;97612.41;;;32.71;43.04
76611;BME280;65503;48.534;9.062;2023-08-21T08:26:27;97615.22;;;33.13;42.85
76611;BME280;65503;48.534;9.062;2023-08-21T08:28:53;97609.03;;;33.35;42.48
76611;BME280;65503;48.534;9.062;2023-08-21T08:31:20;97613.13;;;33.06;41.68
76611;BME280;65503;48.534;9.062;2023-08-21T08:33:47;97610.34;;;33.22;42.31
76611;BME280;65503;48.534;9.062;2023-08-21T08:36:14;97613.81;;;33.19;41.94
76611;BME280;65503;48.534;9.062;2023-08-21T08:38:41;97611.56;;;33.05;42.01
76611;BME280;65503;48.534;9.062;2023-08-21T08:41:14;97609.63;;;33.25;41.72
76611;BME280;65503;48.534;9.062;2023-08-21T08:43:45;97606.38;;;33.61;41.54
76611;BME280;65503;48.534;9.062;2023-08-21T08:46:12;97606.34;;;33.81;41.08
76611;BME280;65503;48.534;9.062;2023-08-21T08:48:38;97602.47;;;34.08;40.44
76611;BME280;65503;48.534;9.062;2023-08-21T08:51:05;97607.44;;;34.25;40.03
76611;BME280;65503;48.534;9.062;2023-08-21T08:53:32;97609.72;;;33.51;40.46
76611;BME280;65503;48.534;9.062;2023-08-21T08:55:59;97609.28;;;33.49;40.50
76611;BME280;65503;48.534;9.062;2023-08-21T08:58:26;97605.19;;;33.82;40.78
76611;BME280;65503;48.534;9.062;2023-08-21T09:00:53;97604.13;;;33.67;41.06
76611;BME280;65503;48.534;9.062;2023-08-21T09:03:19;97598.16;;;33.61;40.46
76611;BME280;65503;48.534;9.062;2023-08-21T09:05:46;97601.69;;;33.39;40.88
76611;BME280;65503;48.534;9.062;2023-08-21T09:08:14;97607.41;;;33.99;39.98
76611;BME280;65503;48.534;9.062;2023-08-21T09:10:42;97608.31;;;33.00;41.68
76611;BME280;65503;48.534;9.062;2023-08-21T09:13:16;97599.13;;;33.50;41.38
76611;BME280;65503;48.534;9.062;2023-08-21T09:15:48;97599.03;;;33.43;41.13
76611;BME280;65503;48.534;9.062;2023-08-21T09:18:15;97608.44;;;33.91;40.66
76611;BME280;65503;48.534;9.062;2023-08-21T09:20:42;97596.56;;;33.80;42.55
76611;BME280;65503;48.534;9.062;2023-08-21T09:23:13;97599.56;;;33.71;41.37
76611;BME280;65503;48.534;9.062;2023-08-21T09:25:40;97593.91;;;33.83;41.32
76611;BME280;65503;48.534;9.062;2023-08-21T09:28:08;97593.88;;;34.06;41.29
76611;BME280;65503;48.534;9.062;2023-08-21T09:30:51;97590.84;;;33.66;41.53
76611;BME280;65503;48.534;9.062;2023-08-21T09:33:22;97597.19;;;33.96;42.50
76611;BME280;65503;48.534;9.062;2023-08-21T09:35:54;97598.09;;;34.26;41.32
76611;BME280;65503;48.534;9.062;2023-08-21T09:38:21;97592.69;;;33.81;41.69
76611;BME280;65503;48.534;9.062;2023-08-21T09:40:53;97592.41;;;33.67;42.06
76611;BME280;65503;48.534;9.062;2023-08-21T09:43:21;97585.38;;;33.20;43.11
76611;BME280;65503;48.534;9.062;2023-08-21T09:45:57;97585.38;;;33.20;43.27
76611;BME280;65503;48.534;9.062;2023-08-21T09:48:25;97587.03;;;33.47;43.53
76611;BME280;65503;48.534;9.062;2023-08-21T09:50:56;97589.09;;;33.77;43.02
76611;BME280;65503;48.534;9.062;2023-08-21T09:53:23;97586.81;;;34.05;41.93
76611;BME280;65503;48.534;9.062;2023-08-21T09:55:54;97592.78;;;34.40;41.54
76611;BME280;65503;48.534;9.062;2023-08-21T09:58:21;97593.31;;;34.50;41.00
76611;BME280;65503;48.534;9.062;2023-08-21T10:00:49;97589.06;;;34.82;42.02
76611;BME280;65503;48.534;9.062;2023-08-21T10:03:19;97588.81;;;34.94;40.72
76611;BME280;65503;48.534;9.062;2023-08-21T10:05:48;97584.50;;;34.93;40.31
76611;BME280;65503;48.534;9.062;2023-08-21T10:08:18;97580.34;;;35.06;39.88
76611;BME280;65503;48.534;9.062;2023-08-21T10:10:47;97587.13;;;35.53;38.71
76611;BME280;65503;48.534;9.062;2023-08-21T10:13:14;97579.44;;;35.69;38.29
76611;BME280;65503;48.534;9.062;2023-08-21T10:15:41;97580.75;;;35.86;37.75
76611;BME280;65503;48.534;9.062;2023-08-21T10:20:47;97572.88;;;35.37;37.74
76611;BME280;65503;48.534;9.062;2023-08-21T10:23:30;97562.69;;;35.37;37.58
76611;BME280;65503;48.534;9.062;2023-08-21T10:26:03;97569.56;;;35.20;38.35
76611;BME280;65503;48.534;9.062;2023-08-21T10:28:49;97563.44;;;35.71;37.94
76611;BME280;65503;48.534;9.062;2023-08-21T10:31:26;97559.84;;;34.30;38.95
76611;BME280;65503;48.534;9.062;2023-08-21T10:33:52;97553.78;;;35.07;37.61
76611;BME280;65503;48.534;9.062;2023-08-21T10:36:39;97549.13;;;35.48;37.00
76611;BME280;65503;48.534;9.062;2023-08-21T10:39:19;97558.22;;;35.59;36.30
76611;BME280;65503;48.534;9.062;2023-08-21T10:41:57;97555.56;;;35.26;36.76
76611;BME280;65503;48.534;9.062;2023-08-21T10:47:30;97548.84;;;35.19;36.96
76611;BME280;65503;48.534;9.062;2023-08-21T10:50:06;97542.25;;;35.68;36.66
76611;BME280;65503;48.534;9.062;2023-08-21T10:52:41;97539.66;;;35.89;36.12
76611;BME280;65503;48.534;9.062;2023-08-21T10:55:10;97543.50;;;34.33;37.36
76611;BME280;65503;48.534;9.062;2023-08-21T10:57:37;97535.66;;;34.62;37.38
76611;BME280;65503;48.534;9.062;2023-08-21T11:00:06;97533.88;;;34.73;37.61
76611;BME280;65503;48.534;9.062;2023-08-21T11:02:42;97529.88;;;35.04;36.38
76611;BME280;65503;48.534;9.062;2023-08-21T11:05:10;97536.72;;;35.20;36.20
76611;BME280;65503;48.534;9.062;2023-08-21T11:07:45;97535.63;;;35.29;36.76
76611;BME280;65503;48.534;9.062;2023-08-21T11:10:15;97529.16;;;35.51;36.73
76611;BME280;65503;48.534;9.062;2023-08-21T11:12:56;97534.16;;;35.86;35.16
76611;BME280;65503;48.534;9.062;2023-08-21T11:15:25;97535.69;;;35.83;34.20
76611;BME280;65503;48.534;9.062;2023-08-21T11:17:59;97543.63;;;35.95;34.99
76611;BME280;65503;48.534;9.062;2023-08-21T11:20:31;97541.47;;;36.26;35.45
76611;BME280;65503;48.534;9.062;2023-08-21T11:23:03;97533.03;;;35.43;34.46
76611;BME280;65503;48.534;9.062;2023-08-21T11:25:33;97536.47;;;35.80;35.13
76611;BME280;65503;48.534;9.062;2023-08-21T11:28:00;97540.88;;;35.95;34.92
76611;BME280;65503;48.534;9.062;2023-08-21T11:30:30;97536.25;;;35.55;34.70
76611;BME280;65503;48.534;9.062;2023-08-21T11:33:08;97541.03;;;35.66;34.64
76611;BME280;65503;48.534;9.062;2023-08-21T11:35:36;97534.00;;;35.64;35.31
76611;BME280;65503;48.534;9.062;2023-08-21T11:38:04;97532.91;;;35.32;35.06
76611;BME280;65503;48.534;9.062;2023-08-21T11:40:34;97532.44;;;35.67;35.91
76611;BME280;65503;48.534;9.062;2023-08-21T11:43:01;97530.09;;;36.20;33.95
76611;BME280;65503;48.534;9.062;2023-08-21T11:45:28;97525.16;;;36.54;35.23
76611;BME280;65503;48.534;9.062;2023-08-21T11:47:57;97531.56;;;36.94;33.34
76611;BME280;65503;48.534;9.062;2023-08-21T11:50:24;97524.59;;;37.32;33.48
76611;BME280;65503;48.534;9.062;2023-08-21T11:52:55;97527.75;;;37.44;32.02
76611;BME280;65503;48.534;9.062;2023-08-21T11:55:22;97519.84;;;36.97;32.86
76611;BME280;65503;48.534;9.062;2023-08-21T11:57:49;97518.69;;;37.12;33.07
76611;BME280;65503;48.534;9.062;2023-08-21T12:00:17;97523.06;;;37.41;32.35
76611;BME280;65503;48.534;9.062;2023-08-21T12:02:59;97521.84;;;37.21;32.55
76611;BME280;65503;48.534;9.062;2023-08-21T12:05:27;97511.25;;;37.44;33.28
76611;BME280;65503;48.534;9.062;2023-08-21T12:07:55;97514.78;;;37.16;31.77
76611;BME280;65503;48.534;9.062;2023-08-21T12:10:26;97507.34;;;37.17;33.12
76611;BME280;65503;48.534;9.062;2023-08-21T12:12:53;97515.09;;;36.83;32.43
76611;BME280;65503;48.534;9.062;2023-08-21T12:15:20;97514.81;;;36.16;33.17
76611;BME280;65503;48.534;9.062;2023-08-21T12:17:47;97506.81;;;35.96;34.12
76611;BME280;65503;48.534;9.062;2023-08-21T12:20:14;97500.75;;;36.28;34.98
76611;BME280;65503;48.534;9.062;2023-08-21T12:22:41;97502.56;;;35.48;35.41
76611;BME280;65503;48.534;9.062;2023-08-21T12:25:10;97498.34;;;36.16;32.30
76611;BME280;65503;48.534;9.062;2023-08-21T12:27:37;97495.34;;;36.49;32.49
76611;BME280;65503;48.534;9.062;2023-08-21T12:30:05;97500.38;;;36.33;32.32
76611;BME280;65503;48.534;9.062;2023-08-21T12:32:33;97497.66;;;36.40;32.79
76611;BME280;65503;48.534;9.062;2023-08-21T12:35:00;97490.00;;;36.92;31.89
76611;BME280;65503;48.534;9.062;2023-08-21T12:37:26;97489.41;;;36.33;31.88
76611;BME280;65503;48.534;9.062;2023-08-21T12:39:53;97487.50;;;36.44;33.34
76611;BME280;65503;48.534;9.062;2023-08-21T12:42:20;97486.84;;;36.82;33.06
76611;BME280;65503;48.534;9.062;2023-08-21T12:44:46;97474.72;;;36.98;31.97
76611;BME280;65503;48.534;9.062;2023-08-21T12:47:13;97473.34;;;36.35;32.15
76611;BME280;65503;48.534;9.062;2023-08-21T12:49:39;97477.50;;;36.08;32.75
76611;BME280;65503;48.534;9.062;2023-08-21T12:52:06;97479.25;;;35.72;33.72
76611;BME280;65503;48.534;9.062;2023-08-21T12:54:36;97473.88;;;35.86;33.26
76611;BME280;65503;48.534;9.062;2023-08-21T12:57:03;97470.06;;;36.04;32.90
76611;BME280;65503;48.534;9.062;2023-08-21T12:59:29;97468.34;;;35.75;33.17
76611;BME280;65503;48.534;9.062;2023-08-21T13:01:59;97467.56;;;35.78;33.55
76611;BME280;65503;48.534;9.062;2023-08-21T13:04:27;97475.56;;;36.12;33.40
76611;BME280;65503;48.534;9.062;2023-08-21T13:06:53;97470.19;;;36.26;33.67
76611;BME280;65503;48.534;9.062;2023-08-21T13:09:20;97457.75;;;36.50;31.15
76611;BME280;65503;48.534;9.062;2023-08-21T13:11:47;97456.59;;;36.61;32.09